sensor_id;sensor_type;location;lat;lon;timestamp;P1;durP1;ratioP1;P2;durP2;ratioP2
61903;SDS011;47857;52.270;6.804;2023-02-08T00:01:15;34.08;;;20.48;;
61903;SDS011;47857;52.270;6.804;2023-02-08T00:03:42;33.60;;;21.60;;
61903;SDS011;47857;52.270;6.804;2023-02-08T00:06:08;35.33;;;21.90;;
61903;SDS011;47857;52.270;6.804;2023-02-08T00:08:34;29.70;;;19.52;;
61903;SDS011;47857;52.270;6.804;2023-02-08T00:11:00;28.27;;;18.55;;
61903;SDS011;47857;52.270;6.804;2023-02-08T00:13:26;27.33;;;18.52;;
61903;SDS011;47857;52.270;6.804;2023-02-08T00:15:52;29.58;;;19.08;;
61903;SDS011;47857;52.270;6.804;2023-02-08T00:18:18;26.63;;;17.85;;
61903;SDS011;47857;52.270;6.804;2023-02-08T00:20:44;30.25;;;19.13;;
61903;SDS011;47857;52.270;6.804;2023-02-08T00:23:10;29.60;;;19.00;;
61903;SDS011;47857;52.270;6.804;2023-02-08T00:25:36;30.75;;;18.70;;
61903;SDS011;47857;52.270;6.804;2023-02-08T00:28:01;30.35;;;18.88;;
61903;SDS011;47857;52.270;6.804;2023-02-08T00:30:27;31.85;;;18.20;;
61903;SDS011;47857;52.270;6.804;2023-02-08T00:32:52;27.17;;;17.52;;
61903;SDS011;47857;52.270;6.804;2023-02-08T00:35:18;27.83;;;16.88;;
61903;SDS011;47857;52.270;6.804;2023-02-08T00:37:44;26.77;;;17.40;;
61903;SDS011;47857;52.270;6.804;2023-02-08T00:40:10;28.83;;;17.10;;
61903;SDS011;47857;52.270;6.804;2023-02-08T00:42:36;26.48;;;16.90;;
61903;SDS011;47857;52.270;6.804;2023-02-08T00:45:01;28.50;;;17.35;;
61903;SDS011;47857;52.270;6.804;2023-02-08T00:47:27;24.50;;;16.83;;
61903;SDS011;47857;52.270;6.804;2023-02-08T00:49:52;27.67;;;17.48;;
61903;SDS011;47857;52.270;6.804;2023-02-08T00:52:18;31.83;;;19.10;;
61903;SDS011;47857;52.270;6.804;2023-02-08T00:54:44;27.77;;;18.30;;
61903;SDS011;47857;52.270;6.804;2023-02-08T00:57:09;28.35;;;18.88;;
61903;SDS011;47857;52.270;6.804;2023-02-08T00:59:35;28.45;;;18.05;;
61903;SDS011;47857;52.270;6.804;2023-02-08T01:02:00;27.17;;;17.30;;
61903;SDS011;47857;52.270;6.804;2023-02-08T01:04:26;28.75;;;18.38;;
61903;SDS011;47857;52.270;6.804;2023-02-08T01:06:51;29.15;;;17.95;;
61903;SDS011;47857;52.270;6.804;2023-02-08T01:09:17;29.38;;;18.65;;
61903;SDS011;47857;52.270;6.804;2023-02-08T01:11:42;28.35;;;18.10;;
61903;SDS011;47857;52.270;6.804;2023-02-08T01:14:08;29.45;;;17.63;;
61903;SDS011;47857;52.270;6.804;2023-02-08T01:16:35;30.02;;;18.25;;
61903;SDS011;47857;52.270;6.804;2023-02-08T01:19:02;26.85;;;16.98;;
61903;SDS011;47857;52.270;6.804;2023-02-08T01:21:30;26.05;;;16.95;;
61903;SDS011;47857;52.270;6.804;2023-02-08T01:23:58;29.52;;;18.17;;
61903;SDS011;47857;52.270;6.804;2023-02-08T01:26:24;27.85;;;17.42;;
61903;SDS011;47857;52.270;6.804;2023-02-08T01:28:50;29.00;;;18.02;;
61903;SDS011;47857;52.270;6.804;2023-02-08T01:31:23;28.95;;;16.95;;
61903;SDS011;47857;52.270;6.804;2023-02-08T01:33:52;29.65;;;17.85;;
61903;SDS011;47857;52.270;6.804;2023-02-08T01:36:18;28.35;;;18.30;;
61903;SDS011;47857;52.270;6.804;2023-02-08T01:38:44;26.70;;;16.15;;
61903;SDS011;47857;52.270;6.804;2023-02-08T01:41:13;26.40;;;16.40;;
61903;SDS011;47857;52.270;6.804;2023-02-08T01:46:30;28.83;;;17.70;;
61903;SDS011;47857;52.270;6.804;2023-02-08T01:48:58;27.50;;;16.75;;
61903;SDS011;47857;52.270;6.804;2023-02-08T01:51:28;29.52;;;17.88;;
61903;SDS011;47857;52.270;6.804;2023-02-08T01:53:57;27.92;;;17.92;;
61903;SDS011;47857;52.270;6.804;2023-02-08T01:56:26;27.75;;;17.80;;
61903;SDS011;47857;52.270;6.804;2023-02-08T01:58:54;31.45;;;17.30;;
61903;SDS011;47857;52.270;6.804;2023-02-08T02:01:22;27.40;;;17.30;;
61903;SDS011;47857;52.270;6.804;2023-02-08T02:03:49;26.98;;;17.17;;
61903;SDS011;47857;52.270;6.804;2023-02-08T02:06:15;27.15;;;16.88;;
61903;SDS011;47857;52.270;6.804;2023-02-08T02:08:48;27.52;;;17.35;;
61903;SDS011;47857;52.270;6.804;2023-02-08T02:13:43;27.30;;;17.30;;
61903;SDS011;47857;52.270;6.804;2023-02-08T02:16:08;29.70;;;17.35;;
61903;SDS011;47857;52.270;6.804;2023-02-08T02:18:34;29.13;;;17.75;;
61903;SDS011;47857;52.270;6.804;2023-02-08T02:40:23;26.33;;;17.58;;
61903;SDS011;47857;52.270;6.804;2023-02-08T02:51:52;28.50;;;18.00;;
61903;SDS011;47857;52.270;6.804;2023-02-08T02:54:23;27.35;;;17.73;;
61903;SDS011;47857;52.270;6.804;2023-02-08T02:56:51;28.80;;;17.50;;
61903;SDS011;47857;52.270;6.804;2023-02-08T02:59:20;26.70;;;17.70;;
61903;SDS011;47857;52.270;6.804;2023-02-08T03:01:46;29.10;;;17.55;;
61903;SDS011;47857;52.270;6.804;2023-02-08T03:04:17;26.88;;;17.35;;
61903;SDS011;47857;52.270;6.804;2023-02-08T03:18:03;36.92;;;17.50;;
61903;SDS011;47857;52.270;6.804;2023-02-08T03:20:37;27.25;;;17.63;;
61903;SDS011;47857;52.270;6.804;2023-02-08T03:26:13;28.98;;;17.35;;
61903;SDS011;47857;52.270;6.804;2023-02-08T03:28:45;29.25;;;18.33;;
61903;SDS011;47857;52.270;6.804;2023-02-08T03:34:10;29.70;;;17.75;;
61903;SDS011;47857;52.270;6.804;2023-02-08T03:39:10;27.73;;;17.73;;
61903;SDS011;47857;52.270;6.804;2023-02-08T03:41:38;28.02;;;17.52;;
61903;SDS011;47857;52.270;6.804;2023-02-08T03:44:06;33.10;;;17.35;;
61903;SDS011;47857;52.270;6.804;2023-02-08T03:46:47;29.73;;;17.77;;
61903;SDS011;47857;52.270;6.804;2023-02-08T03:49:16;26.77;;;17.20;;
61903;SDS011;47857;52.270;6.804;2023-02-08T03:51:46;29.55;;;17.70;;
61903;SDS011;47857;52.270;6.804;2023-02-08T03:54:16;26.98;;;16.85;;
61903;SDS011;47857;52.270;6.804;2023-02-08T03:56:44;27.80;;;17.52;;
61903;SDS011;47857;52.270;6.804;2023-02-08T03:59:15;25.73;;;16.67;;
61903;SDS011;47857;52.270;6.804;2023-02-08T04:01:44;28.75;;;17.48;;
61903;SDS011;47857;52.270;6.804;2023-02-08T04:04:11;31.15;;;18.63;;
61903;SDS011;47857;52.270;6.804;2023-02-08T04:06:38;32.05;;;17.88;;
61903;SDS011;47857;52.270;6.804;2023-02-08T04:09:03;28.65;;;17.75;;
61903;SDS011;47857;52.270;6.804;2023-02-08T04:11:29;31.42;;;18.05;;
61903;SDS011;47857;52.270;6.804;2023-02-08T04:13:54;29.35;;;17.85;;
61903;SDS011;47857;52.270;6.804;2023-02-08T04:16:20;31.00;;;17.55;;
61903;SDS011;47857;52.270;6.804;2023-02-08T04:18:45;26.85;;;17.45;;
61903;SDS011;47857;52.270;6.804;2023-02-08T04:21:11;26.95;;;17.00;;
61903;SDS011;47857;52.270;6.804;2023-02-08T04:23:36;27.35;;;17.42;;
61903;SDS011;47857;52.270;6.804;2023-02-08T04:26:02;25.63;;;16.58;;
61903;SDS011;47857;52.270;6.804;2023-02-08T04:28:28;26.77;;;16.48;;
61903;SDS011;47857;52.270;6.804;2023-02-08T04:30:54;33.58;;;18.40;;
61903;SDS011;47857;52.270;6.804;2023-02-08T04:33:21;26.48;;;17.52;;
61903;SDS011;47857;52.270;6.804;2023-02-08T04:35:46;28.65;;;17.70;;
61903;SDS011;47857;52.270;6.804;2023-02-08T04:38:12;29.08;;;18.50;;
61903;SDS011;47857;52.270;6.804;2023-02-08T04:40:37;29.45;;;18.98;;
61903;SDS011;47857;52.270;6.804;2023-02-08T04:43:03;30.58;;;18.30;;
61903;SDS011;47857;52.270;6.804;2023-02-08T04:45:28;27.38;;;17.80;;
61903;SDS011;47857;52.270;6.804;2023-02-08T04:47:56;29.17;;;17.90;;
61903;SDS011;47857;52.270;6.804;2023-02-08T04:50:22;29.70;;;18.73;;
61903;SDS011;47857;52.270;6.804;2023-02-08T04:52:47;35.70;;;19.45;;
61903;SDS011;47857;52.270;6.804;2023-02-08T04:55:13;33.03;;;19.73;;
61903;SDS011;47857;52.270;6.804;2023-02-08T04:57:38;31.58;;;19.10;;
61903;SDS011;47857;52.270;6.804;2023-02-08T05:00:04;33.80;;;20.83;;
61903;SDS011;47857;52.270;6.804;2023-02-08T05:02:30;33.70;;;20.00;;
61903;SDS011;47857;52.270;6.804;2023-02-08T05:04:56;38.35;;;19.45;;
61903;SDS011;47857;52.270;6.804;2023-02-08T05:07:21;34.60;;;19.00;;
61903;SDS011;47857;52.270;6.804;2023-02-08T05:09:46;34.05;;;20.08;;
61903;SDS011;47857;52.270;6.804;2023-02-08T05:12:12;33.15;;;18.80;;
61903;SDS011;47857;52.270;6.804;2023-02-08T05:14:37;32.47;;;19.17;;
61903;SDS011;47857;52.270;6.804;2023-02-08T05:17:03;30.20;;;17.77;;
61903;SDS011;47857;52.270;6.804;2023-02-08T05:19:28;31.23;;;19.58;;
61903;SDS011;47857;52.270;6.804;2023-02-08T05:21:54;30.33;;;18.50;;
61903;SDS011;47857;52.270;6.804;2023-02-08T05:24:19;28.70;;;18.20;;
61903;SDS011;47857;52.270;6.804;2023-02-08T05:26:45;32.10;;;19.35;;
61903;SDS011;47857;52.270;6.804;2023-02-08T05:29:11;30.95;;;19.05;;
61903;SDS011;47857;52.270;6.804;2023-02-08T05:31:36;29.65;;;18.55;;
61903;SDS011;47857;52.270;6.804;2023-02-08T05:34:02;33.88;;;19.58;;
61903;SDS011;47857;52.270;6.804;2023-02-08T05:36:28;34.25;;;19.42;;
61903;SDS011;47857;52.270;6.804;2023-02-08T05:38:53;33.72;;;20.35;;
61903;SDS011;47857;52.270;6.804;2023-02-08T05:41:19;32.03;;;19.35;;
61903;SDS011;47857;52.270;6.804;2023-02-08T05:43:44;31.85;;;20.00;;
61903;SDS011;47857;52.270;6.804;2023-02-08T05:46:10;32.42;;;19.38;;
61903;SDS011;47857;52.270;6.804;2023-02-08T05:48:36;31.73;;;19.52;;
61903;SDS011;47857;52.270;6.804;2023-02-08T05:51:02;34.10;;;19.83;;
61903;SDS011;47857;52.270;6.804;2023-02-08T05:53:28;32.60;;;19.30;;
61903;SDS011;47857;52.270;6.804;2023-02-08T05:55:55;29.85;;;19.00;;
61903;SDS011;47857;52.270;6.804;2023-02-08T05:58:21;32.08;;;19.42;;
61903;SDS011;47857;52.270;6.804;2023-02-08T06:00:46;32.33;;;19.50;;
61903;SDS011;47857;52.270;6.804;2023-02-08T06:03:12;31.42;;;19.52;;
61903;SDS011;47857;52.270;6.804;2023-02-08T06:05:40;32.88;;;20.23;;
61903;SDS011;47857;52.270;6.804;2023-02-08T06:08:05;32.38;;;19.35;;
61903;SDS011;47857;52.270;6.804;2023-02-08T06:10:31;34.40;;;20.35;;
61903;SDS011;47857;52.270;6.804;2023-02-08T06:12:57;34.60;;;19.73;;
61903;SDS011;47857;52.270;6.804;2023-02-08T06:15:23;35.25;;;20.67;;
61903;SDS011;47857;52.270;6.804;2023-02-08T06:17:49;34.30;;;19.83;;
61903;SDS011;47857;52.270;6.804;2023-02-08T06:20:15;32.42;;;19.63;;
61903;SDS011;47857;52.270;6.804;2023-02-08T06:22:40;35.15;;;20.02;;
61903;SDS011;47857;52.270;6.804;2023-02-08T06:25:06;34.58;;;20.67;;
61903;SDS011;47857;52.270;6.804;2023-02-08T06:27:31;34.97;;;19.48;;
61903;SDS011;47857;52.270;6.804;2023-02-08T06:29:57;34.45;;;20.40;;
61903;SDS011;47857;52.270;6.804;2023-02-08T06:32:22;32.42;;;20.05;;
61903;SDS011;47857;52.270;6.804;2023-02-08T06:34:48;35.20;;;20.52;;
61903;SDS011;47857;52.270;6.804;2023-02-08T06:37:16;34.83;;;20.75;;
61903;SDS011;47857;52.270;6.804;2023-02-08T06:39:42;34.08;;;20.30;;
61903;SDS011;47857;52.270;6.804;2023-02-08T06:42:07;36.45;;;20.80;;
61903;SDS011;47857;52.270;6.804;2023-02-08T06:44:33;37.42;;;21.35;;
61903;SDS011;47857;52.270;6.804;2023-02-08T06:46:58;35.35;;;20.50;;
61903;SDS011;47857;52.270;6.804;2023-02-08T06:49:24;34.67;;;19.48;;
61903;SDS011;47857;52.270;6.804;2023-02-08T06:51:49;34.83;;;20.42;;
61903;SDS011;47857;52.270;6.804;2023-02-08T06:54:15;31.95;;;19.33;;
61903;SDS011;47857;52.270;6.804;2023-02-08T06:56:41;35.65;;;20.35;;
61903;SDS011;47857;52.270;6.804;2023-02-08T06:59:07;37.92;;;21.73;;
61903;SDS011;47857;52.270;6.804;2023-02-08T07:01:32;43.17;;;22.88;;
61903;SDS011;47857;52.270;6.804;2023-02-08T07:03:57;40.65;;;23.00;;
61903;SDS011;47857;52.270;6.804;2023-02-08T07:06:23;40.20;;;21.92;;
61903;SDS011;47857;52.270;6.804;2023-02-08T07:08:48;35.72;;;20.65;;
61903;SDS011;47857;52.270;6.804;2023-02-08T07:11:15;33.72;;;19.98;;
61903;SDS011;47857;52.270;6.804;2023-02-08T07:13:44;37.55;;;20.30;;
61903;SDS011;47857;52.270;6.804;2023-02-08T07:16:13;38.05;;;21.30;;
61903;SDS011;47857;52.270;6.804;2023-02-08T07:18:39;36.10;;;20.52;;
61903;SDS011;47857;52.270;6.804;2023-02-08T07:21:04;35.70;;;21.23;;
61903;SDS011;47857;52.270;6.804;2023-02-08T07:23:30;39.15;;;22.10;;
61903;SDS011;47857;52.270;6.804;2023-02-08T07:25:56;34.05;;;20.45;;
61903;SDS011;47857;52.270;6.804;2023-02-08T07:28:23;34.45;;;20.83;;
61903;SDS011;47857;52.270;6.804;2023-02-08T07:30:48;33.28;;;20.20;;
61903;SDS011;47857;52.270;6.804;2023-02-08T07:33:14;32.50;;;19.10;;
61903;SDS011;47857;52.270;6.804;2023-02-08T07:35:39;30.52;;;18.95;;
61903;SDS011;47857;52.270;6.804;2023-02-08T07:38:05;30.38;;;18.98;;
61903;SDS011;47857;52.270;6.804;2023-02-08T07:40:30;30.55;;;18.55;;
61903;SDS011;47857;52.270;6.804;2023-02-08T07:42:56;32.95;;;19.17;;
61903;SDS011;47857;52.270;6.804;2023-02-08T07:45:36;31.13;;;18.60;;
61903;SDS011;47857;52.270;6.804;2023-02-08T07:48:02;31.85;;;18.65;;
61903;SDS011;47857;52.270;6.804;2023-02-08T07:50:28;33.78;;;18.75;;
61903;SDS011;47857;52.270;6.804;2023-02-08T07:52:53;31.58;;;18.88;;
61903;SDS011;47857;52.270;6.804;2023-02-08T07:55:19;29.05;;;17.92;;
61903;SDS011;47857;52.270;6.804;2023-02-08T07:57:45;30.10;;;17.85;;
61903;SDS011;47857;52.270;6.804;2023-02-08T08:00:12;34.15;;;19.05;;
61903;SDS011;47857;52.270;6.804;2023-02-08T08:02:40;32.42;;;18.33;;
61903;SDS011;47857;52.270;6.804;2023-02-08T08:05:06;32.80;;;18.73;;
61903;SDS011;47857;52.270;6.804;2023-02-08T08:07:32;34.00;;;18.25;;
61903;SDS011;47857;52.270;6.804;2023-02-08T08:09:57;31.67;;;18.13;;
61903;SDS011;47857;52.270;6.804;2023-02-08T08:12:23;29.50;;;17.65;;
61903;SDS011;47857;52.270;6.804;2023-02-08T08:14:49;30.02;;;16.98;;
61903;SDS011;47857;52.270;6.804;2023-02-08T08:17:15;26.23;;;16.15;;
61903;SDS011;47857;52.270;6.804;2023-02-08T08:19:41;26.20;;;15.75;;
61903;SDS011;47857;52.270;6.804;2023-02-08T08:22:06;26.52;;;16.02;;
61903;SDS011;47857;52.270;6.804;2023-02-08T08:24:32;28.33;;;16.15;;
61903;SDS011;47857;52.270;6.804;2023-02-08T08:27:02;23.00;;;14.93;;
61903;SDS011;47857;52.270;6.804;2023-02-08T08:29:35;23.98;;;14.43;;
61903;SDS011;47857;52.270;6.804;2023-02-08T08:32:01;26.08;;;14.88;;
61903;SDS011;47857;52.270;6.804;2023-02-08T08:34:28;23.77;;;14.15;;
61903;SDS011;47857;52.270;6.804;2023-02-08T08:36:58;22.75;;;14.52;;
61903;SDS011;47857;52.270;6.804;2023-02-08T08:39:25;26.92;;;14.75;;
61903;SDS011;47857;52.270;6.804;2023-02-08T08:41:57;28.90;;;14.10;;
61903;SDS011;47857;52.270;6.804;2023-02-08T08:44:23;30.40;;;14.90;;
61903;SDS011;47857;52.270;6.804;2023-02-08T08:46:49;25.70;;;14.85;;
61903;SDS011;47857;52.270;6.804;2023-02-08T08:49:14;23.15;;;13.68;;
61903;SDS011;47857;52.270;6.804;2023-02-08T08:51:40;20.75;;;13.55;;
61903;SDS011;47857;52.270;6.804;2023-02-08T08:54:06;22.83;;;13.02;;
61903;SDS011;47857;52.270;6.804;2023-02-08T08:56:31;20.45;;;13.15;;
61903;SDS011;47857;52.270;6.804;2023-02-08T08:58:57;22.25;;;12.57;;
61903;SDS011;47857;52.270;6.804;2023-02-08T09:01:23;22.65;;;13.00;;
61903;SDS011;47857;52.270;6.804;2023-02-08T09:03:49;18.13;;;10.90;;
61903;SDS011;47857;52.270;6.804;2023-02-08T09:06:15;43.03;;;12.32;;
61903;SDS011;47857;52.270;6.804;2023-02-08T09:08:41;21.92;;;11.68;;
61903;SDS011;47857;52.270;6.804;2023-02-08T09:11:07;21.23;;;11.65;;
61903;SDS011;47857;52.270;6.804;2023-02-08T09:13:34;17.58;;;10.80;;
61903;SDS011;47857;52.270;6.804;2023-02-08T09:16:03;22.80;;;10.75;;
61903;SDS011;47857;52.270;6.804;2023-02-08T09:18:34;21.70;;;10.68;;
61903;SDS011;47857;52.270;6.804;2023-02-08T09:21:03;15.80;;;10.38;;
61903;SDS011;47857;52.270;6.804;2023-02-08T09:23:33;17.98;;;10.95;;
61903;SDS011;47857;52.270;6.804;2023-02-08T09:26:00;17.65;;;10.60;;
61903;SDS011;47857;52.270;6.804;2023-02-08T09:28:33;17.83;;;10.43;;
61903;SDS011;47857;52.270;6.804;2023-02-08T09:30:59;16.73;;;11.05;;
61903;SDS011;47857;52.270;6.804;2023-02-08T09:33:30;15.90;;;10.55;;
61903;SDS011;47857;52.270;6.804;2023-02-08T09:35:56;18.25;;;11.38;;
61903;SDS011;47857;52.270;6.804;2023-02-08T09:38:21;18.95;;;10.55;;
61903;SDS011;47857;52.270;6.804;2023-02-08T09:40:48;17.17;;;10.15;;
61903;SDS011;47857;52.270;6.804;2023-02-08T09:43:27;14.98;;;10.18;;
61903;SDS011;47857;52.270;6.804;2023-02-08T09:46:15;18.17;;;10.07;;
61903;SDS011;47857;52.270;6.804;2023-02-08T09:48:41;16.80;;;10.43;;
61903;SDS011;47857;52.270;6.804;2023-02-08T09:54:37;18.25;;;9.23;;
61903;SDS011;47857;52.270;6.804;2023-02-08T09:57:07;17.95;;;8.95;;
61903;SDS011;47857;52.270;6.804;2023-02-08T09:59:35;13.75;;;8.68;;
61903;SDS011;47857;52.270;6.804;2023-02-08T10:02:25;14.00;;;8.48;;
61903;SDS011;47857;52.270;6.804;2023-02-08T10:04:57;15.95;;;8.50;;
61903;SDS011;47857;52.270;6.804;2023-02-08T10:07:30;12.90;;;8.55;;
61903;SDS011;47857;52.270;6.804;2023-02-08T10:09:57;13.38;;;8.18;;
61903;SDS011;47857;52.270;6.804;2023-02-08T10:15:19;15.38;;;8.40;;
61903;SDS011;47857;52.270;6.804;2023-02-08T10:18:00;23.42;;;14.50;;
61903;SDS011;47857;52.270;6.804;2023-02-08T10:26:43;14.77;;;7.93;;
61903;SDS011;47857;52.270;6.804;2023-02-08T10:29:14;15.52;;;8.18;;
61903;SDS011;47857;52.270;6.804;2023-02-08T10:34:49;12.60;;;7.20;;
61903;SDS011;47857;52.270;6.804;2023-02-08T10:37:26;9.60;;;5.85;;
61903;SDS011;47857;52.270;6.804;2023-02-08T10:42:21;11.55;;;5.28;;
61903;SDS011;47857;52.270;6.804;2023-02-08T10:47:38;8.50;;;5.00;;
61903;SDS011;47857;52.270;6.804;2023-02-08T10:52:54;10.55;;;5.43;;
61903;SDS011;47857;52.270;6.804;2023-02-08T10:55:20;10.18;;;5.55;;
61903;SDS011;47857;52.270;6.804;2023-02-08T10:57:46;10.55;;;5.30;;
61903;SDS011;47857;52.270;6.804;2023-02-08T11:02:43;8.38;;;5.55;;
61903;SDS011;47857;52.270;6.804;2023-02-08T11:05:14;9.13;;;5.35;;
61903;SDS011;47857;52.270;6.804;2023-02-08T11:07:42;8.98;;;5.18;;
61903;SDS011;47857;52.270;6.804;2023-02-08T11:12:43;10.80;;;5.50;;
61903;SDS011;47857;52.270;6.804;2023-02-08T11:15:37;11.13;;;5.22;;
61903;SDS011;47857;52.270;6.804;2023-02-08T11:18:03;8.02;;;4.60;;
61903;SDS011;47857;52.270;6.804;2023-02-08T11:20:38;6.63;;;4.45;;
61903;SDS011;47857;52.270;6.804;2023-02-08T11:23:05;8.35;;;5.22;;
61903;SDS011;47857;52.270;6.804;2023-02-08T11:25:51;7.85;;;4.90;;
61903;SDS011;47857;52.270;6.804;2023-02-08T11:28:36;7.88;;;4.85;;
61903;SDS011;47857;52.270;6.804;2023-02-08T11:31:02;6.80;;;4.40;;
61903;SDS011;47857;52.270;6.804;2023-02-08T11:36:29;8.05;;;4.55;;
61903;SDS011;47857;52.270;6.804;2023-02-08T11:38:56;6.90;;;4.28;;
61903;SDS011;47857;52.270;6.804;2023-02-08T11:41:22;7.78;;;4.32;;
61903;SDS011;47857;52.270;6.804;2023-02-08T11:43:53;11.75;;;4.40;;
61903;SDS011;47857;52.270;6.804;2023-02-08T11:46:22;6.47;;;3.40;;
61903;SDS011;47857;52.270;6.804;2023-02-08T11:48:49;6.50;;;3.55;;
61903;SDS011;47857;52.270;6.804;2023-02-08T11:54:30;5.43;;;3.33;;
61903;SDS011;47857;52.270;6.804;2023-02-08T11:57:03;7.25;;;3.30;;
61903;SDS011;47857;52.270;6.804;2023-02-08T11:59:37;5.43;;;3.30;;
61903;SDS011;47857;52.270;6.804;2023-02-08T12:04:51;7.50;;;3.58;;
61903;SDS011;47857;52.270;6.804;2023-02-08T12:07:25;5.65;;;3.15;;
61903;SDS011;47857;52.270;6.804;2023-02-08T12:16:04;5.75;;;3.03;;
61903;SDS011;47857;52.270;6.804;2023-02-08T12:29:42;5.55;;;3.30;;
61903;SDS011;47857;52.270;6.804;2023-02-08T12:37:43;4.60;;;2.58;;
61903;SDS011;47857;52.270;6.804;2023-02-08T12:53:55;4.40;;;2.33;;
61903;SDS011;47857;52.270;6.804;2023-02-08T12:56:23;3.22;;;2.10;;
61903;SDS011;47857;52.270;6.804;2023-02-08T12:58:53;5.63;;;2.20;;
61903;SDS011;47857;52.270;6.804;2023-02-08T13:01:21;5.63;;;2.25;;
61903;SDS011;47857;52.270;6.804;2023-02-08T13:03:55;3.13;;;2.15;;
61903;SDS011;47857;52.270;6.804;2023-02-08T13:06:25;3.95;;;2.15;;
61903;SDS011;47857;52.270;6.804;2023-02-08T13:08:57;4.55;;;2.47;;
61903;SDS011;47857;52.270;6.804;2023-02-08T13:14:25;14.38;;;5.38;;
61903;SDS011;47857;52.270;6.804;2023-02-08T13:16:57;4.75;;;2.40;;
61903;SDS011;47857;52.270;6.804;2023-02-08T13:19:28;4.25;;;2.33;;
61903;SDS011;47857;52.270;6.804;2023-02-08T13:21:57;4.07;;;2.35;;
61903;SDS011;47857;52.270;6.804;2023-02-08T13:24:39;4.90;;;2.42;;
61903;SDS011;47857;52.270;6.804;2023-02-08T13:27:06;4.15;;;2.30;;
61903;SDS011;47857;52.270;6.804;2023-02-08T13:29:39;3.38;;;1.90;;
61903;SDS011;47857;52.270;6.804;2023-02-08T13:32:05;3.65;;;2.30;;
61903;SDS011;47857;52.270;6.804;2023-02-08T13:34:36;4.43;;;2.38;;
61903;SDS011;47857;52.270;6.804;2023-02-08T13:37:06;4.20;;;2.28;;
61903;SDS011;47857;52.270;6.804;2023-02-08T13:39:48;4.30;;;2.58;;
61903;SDS011;47857;52.270;6.804;2023-02-08T13:42:21;6.03;;;2.78;;
61903;SDS011;47857;52.270;6.804;2023-02-08T13:44:51;6.72;;;2.22;;
61903;SDS011;47857;52.270;6.804;2023-02-08T13:47:41;4.38;;;2.10;;
61903;SDS011;47857;52.270;6.804;2023-02-08T13:50:36;4.07;;;2.33;;
61903;SDS011;47857;52.270;6.804;2023-02-08T13:53:08;4.47;;;2.30;;
61903;SDS011;47857;52.270;6.804;2023-02-08T13:55:53;4.78;;;2.28;;
61903;SDS011;47857;52.270;6.804;2023-02-08T14:01:05;3.33;;;2.28;;
61903;SDS011;47857;52.270;6.804;2023-02-08T14:03:38;4.88;;;2.15;;
61903;SDS011;47857;52.270;6.804;2023-02-08T14:06:14;4.18;;;2.40;;
61903;SDS011;47857;52.270;6.804;2023-02-08T14:14:29;3.95;;;2.50;;
61903;SDS011;47857;52.270;6.804;2023-02-08T14:19:37;3.80;;;2.10;;
61903;SDS011;47857;52.270;6.804;2023-02-08T14:29:57;3.65;;;2.15;;
61903;SDS011;47857;52.270;6.804;2023-02-08T14:32:30;3.83;;;2.08;;
61903;SDS011;47857;52.270;6.804;2023-02-08T14:35:02;4.40;;;2.25;;
61903;SDS011;47857;52.270;6.804;2023-02-08T14:37:33;3.47;;;2.47;;
61903;SDS011;47857;52.270;6.804;2023-02-08T14:40:30;4.93;;;2.60;;
61903;SDS011;47857;52.270;6.804;2023-02-08T14:45:51;6.97;;;2.33;;
61903;SDS011;47857;52.270;6.804;2023-02-08T14:51:16;4.35;;;2.20;;
61903;SDS011;47857;52.270;6.804;2023-02-08T14:53:52;3.75;;;2.25;;
61903;SDS011;47857;52.270;6.804;2023-02-08T14:56:30;5.18;;;2.25;;
61903;SDS011;47857;52.270;6.804;2023-02-08T14:59:06;3.67;;;2.20;;
61903;SDS011;47857;52.270;6.804;2023-02-08T15:01:39;3.30;;;2.30;;
61903;SDS011;47857;52.270;6.804;2023-02-08T15:04:06;3.95;;;2.00;;
61903;SDS011;47857;52.270;6.804;2023-02-08T15:09:27;3.80;;;2.10;;
61903;SDS011;47857;52.270;6.804;2023-02-08T15:12:04;6.95;;;2.30;;
61903;SDS011;47857;52.270;6.804;2023-02-08T15:17:04;3.90;;;2.00;;
61903;SDS011;47857;52.270;6.804;2023-02-08T15:19:34;3.67;;;1.98;;
61903;SDS011;47857;52.270;6.804;2023-02-08T15:22:18;6.45;;;2.20;;
61903;SDS011;47857;52.270;6.804;2023-02-08T15:24:55;3.80;;;2.17;;
61903;SDS011;47857;52.270;6.804;2023-02-08T15:27:22;4.13;;;2.28;;
61903;SDS011;47857;52.270;6.804;2023-02-08T15:29:59;5.45;;;2.47;;
61903;SDS011;47857;52.270;6.804;2023-02-08T15:32:25;4.47;;;2.00;;
61903;SDS011;47857;52.270;6.804;2023-02-08T15:34:53;2.85;;;1.88;;
61903;SDS011;47857;52.270;6.804;2023-02-08T15:37:21;7.88;;;2.20;;
61903;SDS011;47857;52.270;6.804;2023-02-08T15:39:50;6.22;;;2.15;;
61903;SDS011;47857;52.270;6.804;2023-02-08T15:42:21;4.18;;;2.38;;
61903;SDS011;47857;52.270;6.804;2023-02-08T15:44:49;5.47;;;2.20;;
61903;SDS011;47857;52.270;6.804;2023-02-08T15:47:24;3.42;;;1.90;;
61903;SDS011;47857;52.270;6.804;2023-02-08T15:49:50;4.05;;;2.45;;
61903;SDS011;47857;52.270;6.804;2023-02-08T15:52:21;5.07;;;2.85;;
61903;SDS011;47857;52.270;6.804;2023-02-08T15:54:49;6.75;;;3.30;;
61903;SDS011;47857;52.270;6.804;2023-02-08T15:59:50;6.25;;;4.20;;
61903;SDS011;47857;52.270;6.804;2023-02-08T16:04:47;10.93;;;5.45;;
61903;SDS011;47857;52.270;6.804;2023-02-08T16:09:57;14.25;;;7.45;;
61903;SDS011;47857;52.270;6.804;2023-02-08T16:12:23;15.50;;;7.20;;
61903;SDS011;47857;52.270;6.804;2023-02-08T16:14:50;12.25;;;6.15;;
61903;SDS011;47857;52.270;6.804;2023-02-08T16:20:21;15.70;;;8.10;;
61903;SDS011;47857;52.270;6.804;2023-02-08T16:22:58;17.35;;;8.43;;
61903;SDS011;47857;52.270;6.804;2023-02-08T16:25:35;15.95;;;7.82;;
61903;SDS011;47857;52.270;6.804;2023-02-08T16:31:02;15.10;;;7.00;;
61903;SDS011;47857;52.270;6.804;2023-02-08T16:33:29;17.33;;;8.18;;
61903;SDS011;47857;52.270;6.804;2023-02-08T16:35:55;15.57;;;7.10;;
61903;SDS011;47857;52.270;6.804;2023-02-08T16:38:31;15.27;;;6.95;;
61903;SDS011;47857;52.270;6.804;2023-02-08T16:40:59;15.30;;;7.43;;
61903;SDS011;47857;52.270;6.804;2023-02-08T16:43:36;16.90;;;7.75;;
61903;SDS011;47857;52.270;6.804;2023-02-08T16:48:33;14.88;;;7.45;;
61903;SDS011;47857;52.270;6.804;2023-02-08T16:51:00;13.52;;;8.25;;
61903;SDS011;47857;52.270;6.804;2023-02-08T16:53:29;13.13;;;7.80;;
61903;SDS011;47857;52.270;6.804;2023-02-08T16:55:56;14.32;;;6.88;;
61903;SDS011;47857;52.270;6.804;2023-02-08T16:58:22;10.93;;;5.90;;
61903;SDS011;47857;52.270;6.804;2023-02-08T17:00:48;11.00;;;6.63;;
61903;SDS011;47857;52.270;6.804;2023-02-08T17:03:13;9.70;;;6.07;;
61903;SDS011;47857;52.270;6.804;2023-02-08T17:05:39;10.05;;;5.07;;
61903;SDS011;47857;52.270;6.804;2023-02-08T17:08:06;11.93;;;4.65;;
61903;SDS011;47857;52.270;6.804;2023-02-08T17:10:35;7.43;;;4.47;;
61903;SDS011;47857;52.270;6.804;2023-02-08T17:13:01;8.18;;;3.85;;
61903;SDS011;47857;52.270;6.804;2023-02-08T17:15:27;10.48;;;5.38;;
61903;SDS011;47857;52.270;6.804;2023-02-08T17:17:54;13.55;;;5.25;;
61903;SDS011;47857;52.270;6.804;2023-02-08T17:20:24;9.45;;;5.18;;
61903;SDS011;47857;52.270;6.804;2023-02-08T17:22:53;8.20;;;4.70;;
61903;SDS011;47857;52.270;6.804;2023-02-08T17:25:19;11.43;;;5.85;;
61903;SDS011;47857;52.270;6.804;2023-02-08T17:27:46;10.65;;;5.30;;
61903;SDS011;47857;52.270;6.804;2023-02-08T17:30:27;13.95;;;5.97;;
61903;SDS011;47857;52.270;6.804;2023-02-08T17:32:57;8.95;;;5.00;;
61903;SDS011;47857;52.270;6.804;2023-02-08T17:35:23;11.20;;;5.28;;